Time;durP1;ratioP1;P1;durP2;ratioP2;P2;SDS_P1;SDS_P2;PMS_P1;PMS_P2;Temp;Humidity;BMP_temperature;BMP_pressure;BME280_temperature;BME280_humidity;BME280_pressure;Samples;Min_cycle;Max_cycle;Signal;HPM_P1;HPM_P2
2023/10/30 00:01:24;;;;;;;0.35;0.30;;;;;;;;;;5075418;28;20037;-58
2023/10/30 00:03:52;;;;;;;1.77;0.85;;;;;;;;;;5089730;28;20036;-59
2023/10/30 00:06:18;;;;;;;0.88;0.68;;;;;;;;;;5090073;28;20428;-60
2023/10/30 00:08:45;;;;;;;0.15;0.15;;;;;;;;;;5089834;28;20032;-59
2023/10/30 00:11:12;;;;;;;2.15;0.68;;;;;;;;;;5090083;28;20332;-59
2023/10/30 00:13:38;;;;;;;1.60;0.47;;;;;;;;;;5089954;28;20020;-59
2023/10/30 00:16:06;;;;;;;4.70;0.82;;;;;;;;;;5088099;28;20036;-59
2023/10/30 00:18:34;;;;;;;0.80;0.63;;;;;;;;;;5074822;28;20063;-60
2023/10/30 00:21:01;;;;;;;3.40;0.80;;;;;;;;;;5074849;28;20407;-61
2023/10/30 00:23:28;;;;;;;17.65;0.70;;;;;;;;;;5074818;28;20059;-60
2023/10/30 00:25:55;;;;;;;1.83;0.57;;;;;;;;;;5074499;28;20442;-59
2023/10/30 00:28:22;;;;;;;0.32;0.30;;;;;;;;;;5069480;28;20036;-59
2023/10/30 00:30:49;;;;;;;1.50;0.80;;;;;;;;;;5075545;28;20092;-59
2023/10/30 00:33:15;;;;;;;2.30;0.80;;;;;;;;;;5089530;28;20032;-59
2023/10/30 00:35:42;;;;;;;2.05;1.08;;;;;;;;;;5089306;28;20046;-59
2023/10/30 00:38:09;;;;;;;0.32;0.30;;;;;;;;;;5093861;28;20496;-59
2023/10/30 00:40:36;;;;;;;1.25;0.52;;;;;;;;;;5094840;28;20424;-59
2023/10/30 00:43:03;;;;;;;2.47;0.22;;;;;;;;;;5062157;28;20123;-58
2023/10/30 00:45:29;;;;;;;0.75;0.40;;;;;;;;;;5074489;28;20032;-59
2023/10/30 00:47:56;;;;;;;2.33;0.90;;;;;;;;;;5074254;28;20036;-59
2023/10/30 00:50:23;;;;;;;1.60;0.77;;;;;;;;;;5071123;28;20103;-59
2023/10/30 00:52:50;;;;;;;5.68;0.85;;;;;;;;;;5068844;28;20103;-59
2023/10/30 00:55:17;;;;;;;0.77;0.52;;;;;;;;;;5069083;28;20064;-59
2023/10/30 00:57:44;;;;;;;1.17;0.80;;;;;;;;;;5068943;28;20036;-59
2023/10/30 01:00:11;;;;;;;2.05;0.98;;;;;;;;;;5071833;28;20013;-59
2023/10/30 01:02:39;;;;;;;6.95;1.10;;;;;;;;;;5074067;28;20032;-59
2023/10/30 01:05:08;;;;;;;2.45;1.00;;;;;;;;;;5075117;28;20493;-58
2023/10/30 01:07:35;;;;;;;1.98;1.00;;;;;;;;;;5072953;28;20024;-58
2023/10/30 01:10:02;;;;;;;1.45;0.77;;;;;;;;;;5074047;28;20032;-59
2023/10/30 01:12:28;;;;;;;2.38;0.93;;;;;;;;;;5070377;28;20082;-59
2023/10/30 01:14:55;;;;;;;0.82;0.60;;;;;;;;;;5068535;28;20511;-59
2023/10/30 01:17:22;;;;;;;0.80;0.60;;;;;;;;;;5068235;28;20036;-59
2023/10/30 01:19:49;;;;;;;0.40;0.22;;;;;;;;;;5068467;28;20090;-58
2023/10/30 01:22:15;;;;;;;0.80;0.47;;;;;;;;;;5070813;28;20394;-58
2023/10/30 01:24:42;;;;;;;2.92;1.02;;;;;;;;;;5073683;28;20028;-59
2023/10/30 01:27:09;;;;;;;2.13;0.80;;;;;;;;;;5073638;28;20471;-60
2023/10/30 01:29:35;;;;;;;0.87;0.43;;;;;;;;;;5084174;28;20518;-59
2023/10/30 01:32:02;;;;;;;1.08;0.68;;;;;;;;;;5093169;28;20027;-59
2023/10/30 01:34:29;;;;;;;0.38;0.38;;;;;;;;;;5090891;28;20040;-60
2023/10/30 01:36:57;;;;;;;13.93;1.17;;;;;;;;;;5088498;28;20036;-59
2023/10/30 01:39:23;;;;;;;2.17;1.03;;;;;;;;;;5087971;28;20032;-59
2023/10/30 01:41:50;;;;;;;3.00;1.33;;;;;;;;;;5088385;28;20142;-59
2023/10/30 01:44:17;;;;;;;3.90;0.83;;;;;;;;;;5089403;28;20032;-59
2023/10/30 01:46:43;;;;;;;7.97;0.80;;;;;;;;;;5093794;28;20375;-59
2023/10/30 01:49:10;;;;;;;2.37;1.13;;;;;;;;;;5093348;28;20115;-59
2023/10/30 01:51:37;;;;;;;1.77;0.90;;;;;;;;;;5093024;28;20036;-59
2023/10/30 01:54:04;;;;;;;4.03;1.30;;;;;;;;;;5080412;28;20036;-59
2023/10/30 01:56:32;;;;;;;2.27;1.30;;;;;;;;;;5071672;28;20533;-59
2023/10/30 01:59:00;;;;;;;1.03;0.70;;;;;;;;;;5067992;28;20042;-59
2023/10/30 02:01:26;;;;;;;0.93;0.67;;;;;;;;;;5067996;28;20048;-59
2023/10/30 02:03:55;;;;;;;2.10;0.80;;;;;;;;;;5067737;28;20066;-59
2023/10/30 02:06:24;;;;;;;1.50;0.93;;;;;;;;;;5072100;28;20386;-59
2023/10/30 02:08:53;;;;;;;1.83;1.17;;;;;;;;;;5092486;28;20024;-60
2023/10/30 02:11:20;;;;;;;0.73;0.60;;;;;;;;;;5093136;28;20085;-59
2023/10/30 02:14:01;;;;;;;1.27;0.83;;;;;;;;;;5078918;28;20103;-59
2023/10/30 02:16:27;;;;;;;5.57;1.57;;;;;;;;;;5072612;28;20040;-60
2023/10/30 02:18:59;;;;;;;0.97;0.67;;;;;;;;;;5071178;28;20028;-59
2023/10/30 02:21:32;;;;;;;1.27;0.80;;;;;;;;;;5067297;28;20075;-59
2023/10/30 02:24:06;;;;;;;0.97;0.60;;;;;;;;;;5067363;28;20028;-59
2023/10/30 02:26:33;;;;;;;0.95;0.57;;;;;;;;;;5072027;28;20081;-59
2023/10/30 02:29:01;;;;;;;7.20;0.93;;;;;;;;;;5088258;28;20036;-59
2023/10/30 02:31:30;;;;;;;1.83;0.80;;;;;;;;;;5092699;28;20073;-60
2023/10/30 02:33:57;;;;;;;0.90;0.57;;;;;;;;;;5092408;28;20580;-59
2023/10/30 02:36:23;;;;;;;0.60;0.57;;;;;;;;;;5089355;28;20425;-61
2023/10/30 02:38:51;;;;;;;1.57;0.77;;;;;;;;;;5073080;28;20024;-59
2023/10/30 02:41:18;;;;;;;1.57;0.87;;;;;;;;;;5071242;28;20032;-59
2023/10/30 02:43:45;;;;;;;3.00;1.33;;;;;;;;;;5066957;28;20024;-59
2023/10/30 02:46:12;;;;;;;1.03;0.67;;;;;;;;;;5067042;28;20055;-59
2023/10/30 02:48:39;;;;;;;1.87;1.10;;;;;;;;;;5066726;28;20028;-60
2023/10/30 02:51:06;;;;;;;2.97;1.23;;;;;;;;;;5069590;28;20076;-59
2023/10/30 02:53:32;;;;;;;1.23;0.90;;;;;;;;;;5092544;28;20028;-59
2023/10/30 02:56:00;;;;;;;0.63;0.53;;;;;;;;;;5092183;28;20099;-59
2023/10/30 02:58:26;;;;;;;1.57;1.00;;;;;;;;;;5092453;28;20031;-59
2023/10/30 03:00:57;;;;;;;3.27;1.30;;;;;;;;;;5088208;28;20024;-59
2023/10/30 03:03:24;;;;;;;1.17;0.93;;;;;;;;;;5071911;28;20033;-59
2023/10/30 03:05:50;;;;;;;1.40;0.73;;;;;;;;;;5066929;28;20499;-59
2023/10/30 03:08:17;;;;;;;2.57;1.47;;;;;;;;;;5082100;28;20028;-59
2023/10/30 03:10:44;;;;;;;2.00;0.80;;;;;;;;;;5086825;28;20035;-59
2023/10/30 03:13:10;;;;;;;1.53;0.70;;;;;;;;;;5075023;28;20472;-59
2023/10/30 03:15:37;;;;;;;2.03;1.07;;;;;;;;;;5085937;28;20059;-59
2023/10/30 03:18:04;;;;;;;1.10;0.90;;;;;;;;;;5089930;28;20036;-58
2023/10/30 03:20:31;;;;;;;1.07;0.80;;;;;;;;;;5072050;28;20029;-59
2023/10/30 03:22:57;;;;;;;2.73;0.77;;;;;;;;;;5071620;28;20070;-59
2023/10/30 03:25:24;;;;;;;2.47;0.93;;;;;;;;;;5071778;28;20025;-59
2023/10/30 03:27:51;;;;;;;1.43;0.83;;;;;;;;;;5067715;28;20021;-59
2023/10/30 03:30:17;;;;;;;0.87;0.70;;;;;;;;;;5068418;28;20441;-58
2023/10/30 03:32:44;;;;;;;1.50;1.30;;;;;;;;;;5070870;28;20059;-58
2023/10/30 03:35:11;;;;;;;2.63;0.90;;;;;;;;;;5070176;28;20031;-60
2023/10/30 03:37:38;;;;;;;0.93;0.70;;;;;;;;;;5073731;28;20367;-59
2023/10/30 03:40:04;;;;;;;1.73;0.97;;;;;;;;;;5075748;28;20023;-59
2023/10/30 03:42:31;;;;;;;4.63;1.57;;;;;;;;;;5075107;28;20107;-59
2023/10/30 03:44:58;;;;;;;2.33;1.37;;;;;;;;;;5075398;28;20027;-58
2023/10/30 03:47:24;;;;;;;12.07;1.10;;;;;;;;;;5075153;28;20410;-59
2023/10/30 03:49:51;;;;;;;2.50;1.20;;;;;;;;;;5072282;28;20021;-58
2023/10/30 03:52:18;;;;;;;2.50;0.77;;;;;;;;;;5070272;28;20550;-60
2023/10/30 03:54:45;;;;;;;0.80;0.57;;;;;;;;;;5070080;28;20036;-59
2023/10/30 03:57:12;;;;;;;0.57;0.43;;;;;;;;;;5070356;28;20077;-59
2023/10/30 03:59:39;;;;;;;1.03;0.87;;;;;;;;;;5072605;28;20027;-58
2023/10/30 04:02:05;;;;;;;2.83;0.83;;;;;;;;;;5074641;28;20487;-59
2023/10/30 04:04:32;;;;;;;1.27;0.87;;;;;;;;;;5073517;28;20039;-59
2023/10/30 04:07:00;;;;;;;6.47;1.77;;;;;;;;;;5075040;28;20440;-58
2023/10/30 04:09:28;;;;;;;1.10;0.70;;;;;;;;;;5075316;28;20081;-58
2023/10/30 04:11:57;;;;;;;1.10;0.63;;;;;;;;;;5072271;28;20032;-59
2023/10/30 04:14:23;;;;;;;2.73;1.30;;;;;;;;;;5069583;28;20117;-59
2023/10/30 04:16:50;;;;;;;1.20;0.80;;;;;;;;;;5069749;28;20396;-59
2023/10/30 04:19:17;;;;;;;1.37;0.87;;;;;;;;;;5069708;28;20039;-59
2023/10/30 04:21:44;;;;;;;1.40;1.00;;;;;;;;;;5070878;28;20021;-59
2023/10/30 04:24:11;;;;;;;3.00;1.50;;;;;;;;;;5074701;28;20529;-58
2023/10/30 04:26:38;;;;;;;14.13;1.50;;;;;;;;;;5074742;28;20363;-59
2023/10/30 04:29:04;;;;;;;0.70;0.57;;;;;;;;;;5074710;28;20090;-58
2023/10/30 04:31:32;;;;;;;1.53;1.00;;;;;;;;;;5074321;28;20389;-59
2023/10/30 04:34:01;;;;;;;2.63;1.30;;;;;;;;;;5073145;28;20115;-59
2023/10/30 04:36:28;;;;;;;10.70;1.50;;;;;;;;;;5069586;28;20538;-59
2023/10/30 04:38:55;;;;;;;1.53;1.00;;;;;;;;;;5069679;28;20111;-58
2023/10/30 04:41:22;;;;;;;10.47;0.97;;;;;;;;;;5069392;28;20031;-59
2023/10/30 04:43:48;;;;;;;0.97;0.80;;;;;;;;;;5070187;28;20036;-59
2023/10/30 04:46:17;;;;;;;3.90;1.47;;;;;;;;;;5074333;28;20017;-59
2023/10/30 04:48:43;;;;;;;1.83;1.07;;;;;;;;;;5056238;28;20510;-58
2023/10/30 04:51:10;;;;;;;0.90;0.60;;;;;;;;;;5074471;28;20024;-58
2023/10/30 04:53:37;;;;;;;4.23;0.97;;;;;;;;;;5074511;28;20024;-58
2023/10/30 04:56:06;;;;;;;0.90;0.50;;;;;;;;;;5073586;28;20024;-59
2023/10/30 04:58:32;;;;;;;0.70;0.50;;;;;;;;;;5069163;28;20467;-58
2023/10/30 05:00:59;;;;;;;4.67;0.80;;;;;;;;;;5069221;28;20028;-59
2023/10/30 05:03:26;;;;;;;1.10;0.73;;;;;;;;;;5069108;28;20025;-59
2023/10/30 05:05:52;;;;;;;0.60;0.50;;;;;;;;;;5069133;28;20031;-59
2023/10/30 05:08:20;;;;;;;0.57;0.50;;;;;;;;;;5073693;28;20052;-59
2023/10/30 05:10:46;;;;;;;1.20;0.77;;;;;;;;;;5074182;28;20024;-58
2023/10/30 05:13:13;;;;;;;1.40;0.90;;;;;;;;;;5073912;28;20422;-58
2023/10/30 05:15:40;;;;;;;2.30;0.97;;;;;;;;;;5074041;28;20035;-58
2023/10/30 05:18:06;;;;;;;1.53;0.73;;;;;;;;;;5073872;28;20032;-58
2023/10/30 05:20:33;;;;;;;0.97;0.67;;;;;;;;;;5068749;28;20429;-59
2023/10/30 05:23:00;;;;;;;4.37;1.23;;;;;;;;;;5068756;28;20028;-59
2023/10/30 05:25:27;;;;;;;9.20;1.70;;;;;;;;;;5068817;28;20079;-58
2023/10/30 05:27:54;;;;;;;1.53;0.87;;;;;;;;;;5068249;28;20039;-59
2023/10/30 05:30:20;;;;;;;1.37;0.93;;;;;;;;;;5072786;28;20043;-59
2023/10/30 05:32:47;;;;;;;2.70;1.33;;;;;;;;;;5073558;28;20021;-58
2023/10/30 05:35:14;;;;;;;2.50;1.17;;;;;;;;;;5073572;28;20035;-59
2023/10/30 05:37:41;;;;;;;0.93;0.73;;;;;;;;;;5073588;28;20028;-58
2023/10/30 05:40:08;;;;;;;1.40;1.00;;;;;;;;;;5073492;28;20383;-58
2023/10/30 05:42:35;;;;;;;1.33;0.80;;;;;;;;;;5069309;28;20104;-59
2023/10/30 05:45:01;;;;;;;1.50;0.90;;;;;;;;;;5068241;28;20028;-59
2023/10/30 05:47:28;;;;;;;2.80;1.53;;;;;;;;;;5068456;28;20048;-59
2023/10/30 05:49:55;;;;;;;2.33;1.07;;;;;;;;;;5068210;28;20884;-59
2023/10/30 05:52:22;;;;;;;2.70;1.47;;;;;;;;;;5070776;28;20479;-58
2023/10/30 05:54:48;;;;;;;5.13;1.53;;;;;;;;;;5072922;28;20036;-58
2023/10/30 05:57:15;;;;;;;4.00;1.73;;;;;;;;;;5073095;28;20348;-59
2023/10/30 05:59:42;;;;;;;3.87;1.67;;;;;;;;;;5081655;28;20024;-58
2023/10/30 06:02:09;;;;;;;0.47;0.47;;;;;;;;;;5075885;28;20039;-58
2023/10/30 06:04:36;;;;;;;0.90;0.80;;;;;;;;;;5070560;28;20119;-58
2023/10/30 06:07:02;;;;;;;4.87;1.33;;;;;;;;;;5080332;28;20028;-59
2023/10/30 06:09:30;;;;;;;0.83;0.67;;;;;;;;;;5070991;28;20025;-59
2023/10/30 06:11:56;;;;;;;1.50;0.80;;;;;;;;;;5056309;28;20021;-58
2023/10/30 06:14:23;;;;;;;2.53;0.70;;;;;;;;;;5054177;28;20029;-58
2023/10/30 06:16:50;;;;;;;0.47;0.43;;;;;;;;;;5069069;28;20021;-59
2023/10/30 06:19:17;;;;;;;3.60;1.73;;;;;;;;;;5052752;28;20055;-58
2023/10/30 06:21:43;;;;;;;1.67;1.13;;;;;;;;;;5062944;28;20035;-58
2023/10/30 06:24:10;;;;;;;6.70;1.10;;;;;;;;;;5092500;28;20429;-59
2023/10/30 06:26:43;;;;;;;5.17;1.43;;;;;;;;;;5090581;28;20028;-58
2023/10/30 06:29:10;;;;;;;1.17;0.87;;;;;;;;;;5087916;28;20043;-59
2023/10/30 06:31:37;;;;;;;4.30;1.23;;;;;;;;;;5087811;28;20375;-59
2023/10/30 06:34:03;;;;;;;1.93;1.10;;;;;;;;;;5087835;28;20119;-58
2023/10/30 06:36:31;;;;;;;1.90;0.97;;;;;;;;;;5087593;28;20028;-59
2023/10/30 06:38:59;;;;;;;1.43;0.93;;;;;;;;;;5072542;28;20035;-58
2023/10/30 06:41:25;;;;;;;3.03;1.13;;;;;;;;;;5072018;28;20055;-59
2023/10/30 06:43:52;;;;;;;3.47;0.90;;;;;;;;;;5072651;28;20025;-59
2023/10/30 06:46:19;;;;;;;1.50;1.00;;;;;;;;;;5072227;28;20028;-59
2023/10/30 06:48:45;;;;;;;1.07;0.67;;;;;;;;;;5070651;28;20021;-59
2023/10/30 06:51:12;;;;;;;1.77;1.00;;;;;;;;;;5067475;28;20020;-58
2023/10/30 06:53:39;;;;;;;1.33;0.53;;;;;;;;;;5067403;28;20517;-58
2023/10/30 06:56:06;;;;;;;1.80;0.93;;;;;;;;;;5067346;28;20020;-59
2023/10/30 06:58:32;;;;;;;2.87;1.37;;;;;;;;;;5068154;28;20387;-58
2023/10/30 07:01:04;;;;;;;1.67;0.97;;;;;;;;;;5073788;28;20032;-59
2023/10/30 07:03:35;;;;;;;1.93;1.27;;;;;;;;;;5092152;28;20103;-58
2023/10/30 07:06:02;;;;;;;2.17;1.03;;;;;;;;;;5075759;28;20066;-58
2023/10/30 07:08:29;;;;;;;2.07;1.17;;;;;;;;;;5072082;28;20024;-59
2023/10/30 07:10:55;;;;;;;1.47;1.00;;;;;;;;;;5071075;28;20479;-59
2023/10/30 07:13:23;;;;;;;1.63;0.90;;;;;;;;;;5067139;28;20020;-58
2023/10/30 07:15:50;;;;;;;3.43;0.90;;;;;;;;;;5083154;28;20127;-59
2023/10/30 07:18:17;;;;;;;2.80;1.07;;;;;;;;;;5087124;28;20111;-59
2023/10/30 07:20:43;;;;;;;1.20;0.70;;;;;;;;;;5087427;28;20062;-59
2023/10/30 07:23:10;;;;;;;2.33;0.90;;;;;;;;;;5074461;28;20036;-59
2023/10/30 07:25:37;;;;;;;10.27;1.13;;;;;;;;;;5071642;28;20024;-59
2023/10/30 07:28:03;;;;;;;1.10;0.90;;;;;;;;;;5071877;28;20055;-59
2023/10/30 07:30:30;;;;;;;0.73;0.70;;;;;;;;;;5071883;28;20028;-58
2023/10/30 07:32:57;;;;;;;1.10;0.80;;;;;;;;;;5071798;28;20021;-59
2023/10/30 07:35:23;;;;;;;2.43;1.10;;;;;;;;;;5066721;28;20339;-59
2023/10/30 07:37:50;;;;;;;2.00;1.17;;;;;;;;;;5066838;28;20024;-58
2023/10/30 07:40:17;;;;;;;1.40;1.03;;;;;;;;;;5079901;28;20024;-59
2023/10/30 07:42:43;;;;;;;2.00;1.13;;;;;;;;;;5087163;28;20082;-59
2023/10/30 07:45:12;;;;;;;2.03;1.03;;;;;;;;;;5091530;28;20095;-58
2023/10/30 07:47:38;;;;;;;0.63;0.50;;;;;;;;;;5091833;28;20024;-58
2023/10/30 07:50:05;;;;;;;1.23;0.90;;;;;;;;;;5092054;28;20030;-58
2023/10/30 07:52:32;;;;;;;0.97;0.70;;;;;;;;;;5077695;28;20373;-59
2023/10/30 07:54:59;;;;;;;0.70;0.60;;;;;;;;;;5071134;28;20467;-58
2023/10/30 07:57:26;;;;;;;1.13;0.80;;;;;;;;;;5067177;28;20453;-58
2023/10/30 07:59:52;;;;;;;0.63;0.53;;;;;;;;;;5066681;28;20059;-58
2023/10/30 08:02:19;;;;;;;2.00;1.00;;;;;;;;;;5070074;28;20081;-58
2023/10/30 08:04:46;;;;;;;1.67;1.07;;;;;;;;;;5087001;28;20028;-59
2023/10/30 08:07:12;;;;;;;1.77;1.23;;;;;;;;;;5090534;28;20494;-58
2023/10/30 08:09:39;;;;;;;1.80;1.07;;;;;;;;;;5091782;28;20543;-59
2023/10/30 08:12:06;;;;;;;1.30;0.87;;;;;;;;;;5091625;28;20024;-58
2023/10/30 08:14:32;;;;;;;0.90;0.70;;;;;;;;;;5091269;28;20040;-58
2023/10/30 08:17:00;;;;;;;1.00;0.80;;;;;;;;;;5093984;28;20017;-58
2023/10/30 08:19:26;;;;;;;1.90;1.17;;;;;;;;;;5091667;28;20125;-58
2023/10/30 08:21:53;;;;;;;1.20;0.90;;;;;;;;;;5090697;28;20795;-58
2023/10/30 08:24:20;;;;;;;1.40;1.00;;;;;;;;;;5090151;28;20471;-59
2023/10/30 08:26:47;;;;;;;1.07;0.87;;;;;;;;;;5090326;28;20020;-59
2023/10/30 08:29:14;;;;;;;0.70;0.60;;;;;;;;;;5092916;28;20097;-59
2023/10/30 08:31:40;;;;;;;1.50;1.03;;;;;;;;;;5094907;28;20016;-59
2023/10/30 08:34:07;;;;;;;0.57;0.40;;;;;;;;;;5094977;28;20470;-58
2023/10/30 08:36:34;;;;;;;2.60;1.47;;;;;;;;;;5095264;28;20340;-59
2023/10/30 08:39:00;;;;;;;0.93;0.77;;;;;;;;;;5095263;28;20031;-59
2023/10/30 08:41:27;;;;;;;1.87;1.17;;;;;;;;;;5092312;28;20443;-58
2023/10/30 08:43:54;;;;;;;1.50;0.80;;;;;;;;;;5089824;28;20493;-58
2023/10/30 08:46:20;;;;;;;1.33;0.73;;;;;;;;;;5089801;28;20109;-58
2023/10/30 08:48:47;;;;;;;1.60;1.23;;;;;;;;;;5090041;28;20028;-58
2023/10/30 08:51:14;;;;;;;0.87;0.73;;;;;;;;;;5091521;28;20026;-58
2023/10/30 08:53:40;;;;;;;1.87;0.80;;;;;;;;;;5094911;28;20095;-58
2023/10/30 08:56:07;;;;;;;1.27;0.90;;;;;;;;;;5094300;28;20473;-58
2023/10/30 08:58:34;;;;;;;1.30;1.00;;;;;;;;;;5094754;28;20021;-58
2023/10/30 09:01:00;;;;;;;1.20;0.90;;;;;;;;;;5094640;28;20028;-58
2023/10/30 09:03:27;;;;;;;2.63;1.03;;;;;;;;;;5092504;28;20024;-58
2023/10/30 09:05:54;;;;;;;1.67;0.97;;;;;;;;;;5075060;28;20025;-58
2023/10/30 09:08:20;;;;;;;2.43;1.37;;;;;;;;;;5069303;28;20443;-58
2023/10/30 09:10:47;;;;;;;1.87;0.63;;;;;;;;;;5069098;28;20518;-58
2023/10/30 09:13:14;;;;;;;1.97;1.30;;;;;;;;;;5070218;28;20548;-59
2023/10/30 09:15:40;;;;;;;0.53;0.50;;;;;;;;;;5074044;28;20029;-58
2023/10/30 09:18:07;;;;;;;1.57;0.90;;;;;;;;;;5056047;28;20375;-58
2023/10/30 09:20:34;;;;;;;5.50;0.93;;;;;;;;;;5074033;28;20051;-58
2023/10/30 09:23:00;;;;;;;1.17;0.97;;;;;;;;;;5059225;28;20090;-58
2023/10/30 09:25:27;;;;;;;1.10;0.73;;;;;;;;;;5052781;28;20032;-59
2023/10/30 09:27:54;;;;;;;1.33;0.93;;;;;;;;;;5047940;28;20033;-59
2023/10/30 09:30:27;;;;;;;1.23;0.90;;;;;;;;;;5066997;28;20475;-58
2023/10/30 09:32:54;;;;;;;6.73;1.30;;;;;;;;;;5069030;28;20028;-59
2023/10/30 09:35:21;;;;;;;0.73;0.63;;;;;;;;;;5069049;28;20070;-59
2023/10/30 09:37:47;;;;;;;1.27;0.93;;;;;;;;;;5073578;28;20111;-58
2023/10/30 09:40:14;;;;;;;1.73;1.20;;;;;;;;;;5073505;28;20033;-58
2023/10/30 09:42:53;;;;;;;1.53;0.77;;;;;;;;;;5073578;28;20017;-59
2023/10/30 09:45:22;;;;;;;1.37;0.93;;;;;;;;;;5077633;28;20489;-59
2023/10/30 09:47:49;;;;;;;2.10;1.27;;;;;;;;;;5092640;28;20521;-58
2023/10/30 09:50:17;;;;;;;1.47;0.87;;;;;;;;;;5088815;28;20482;-58
2023/10/30 09:52:44;;;;;;;1.20;0.90;;;;;;;;;;5088611;28;20020;-59
2023/10/30 09:55:11;;;;;;;3.20;1.40;;;;;;;;;;5088512;28;20036;-58
2023/10/30 09:57:40;;;;;;;1.87;1.10;;;;;;;;;;5086867;28;20375;-59
2023/10/30 10:00:07;;;;;;;0.90;0.70;;;;;;;;;;5092997;28;20048;-59
2023/10/30 10:02:34;;;;;;;1.03;0.90;;;;;;;;;;5093624;28;20107;-58
2023/10/30 10:05:01;;;;;;;0.93;0.60;;;;;;;;;;5093372;28;20501;-59
2023/10/30 10:07:28;;;;;;;2.13;0.87;;;;;;;;;;5092703;28;20154;-59
2023/10/30 10:09:58;;;;;;;1.10;0.80;;;;;;;;;;5073031;28;20021;-58
2023/10/30 10:12:25;;;;;;;1.03;0.80;;;;;;;;;;5067861;28;20031;-58
2023/10/30 10:14:52;;;;;;;1.20;0.73;;;;;;;;;;5071337;28;20028;-58
2023/10/30 10:17:18;;;;;;;1.33;1.00;;;;;;;;;;5077784;28;20035;-58
2023/10/30 10:19:48;;;;;;;3.90;1.10;;;;;;;;;;5073268;28;20383;-58
2023/10/30 10:22:28;;;;;;;1.17;0.80;;;;;;;;;;5091989;28;20032;-58
2023/10/30 10:24:55;;;;;;;1.37;0.73;;;;;;;;;;5072790;28;20025;-58
2023/10/30 10:27:25;;;;;;;2.20;1.03;;;;;;;;;;5072436;28;20044;-58
2023/10/30 10:29:54;;;;;;;1.23;1.00;;;;;;;;;;5072412;28;20040;-58
2023/10/30 10:32:28;;;;;;;1.20;0.80;;;;;;;;;;5072425;28;20021;-58
2023/10/30 10:34:58;;;;;;;0.50;0.47;;;;;;;;;;5067616;28;20051;-58
2023/10/30 10:37:25;;;;;;;2.63;1.30;;;;;;;;;;5067893;28;20024;-58
2023/10/30 10:39:53;;;;;;;1.20;0.80;;;;;;;;;;5068077;28;20025;-58
2023/10/30 10:42:20;;;;;;;0.60;0.60;;;;;;;;;;5067479;28;20024;-59
2023/10/30 10:44:48;;;;;;;1.57;0.90;;;;;;;;;;5072234;28;20026;-58
2023/10/30 10:47:15;;;;;;;1.13;0.87;;;;;;;;;;5073011;28;20498;-58
2023/10/30 10:49:41;;;;;;;4.27;1.20;;;;;;;;;;5092611;28;20099;-58
2023/10/30 10:52:15;;;;;;;1.20;0.87;;;;;;;;;;5092113;28;20028;-58
2023/10/30 10:55:08;;;;;;;0.67;0.67;;;;;;;;;;5092415;28;20039;-58
2023/10/30 10:57:40;;;;;;;21.73;0.97;;;;;;;;;;5083178;28;20102;-58
2023/10/30 11:00:09;;;;;;;2.47;0.93;;;;;;;;;;5087320;28;20555;-58
2023/10/30 11:02:38;;;;;;;1.10;0.57;;;;;;;;;;5087404;28;20038;-58
2023/10/30 11:05:05;;;;;;;1.70;1.00;;;;;;;;;;5087780;28;20471;-58
2023/10/30 11:07:50;;;;;;;0.87;0.60;;;;;;;;;;5073290;28;20024;-58
2023/10/30 11:10:22;;;;;;;1.92;1.00;;;;;;;;;;5087372;28;20059;-58
2023/10/30 11:12:53;;;;;;;0.77;0.50;;;;;;;;;;5087237;28;20103;-58
2023/10/30 11:15:30;;;;;;;1.67;1.00;;;;;;;;;;5072012;28;20032;-58
2023/10/30 11:18:15;;;;;;;1.33;0.80;;;;;;;;;;5070214;28;20028;-59
2023/10/30 11:20:42;;;;;;;3.53;0.82;;;;;;;;;;5067061;28;20028;-58
2023/10/30 11:23:10;;;;;;;0.70;0.63;;;;;;;;;;5066204;28;20032;-58
2023/10/30 11:25:40;;;;;;;3.80;1.03;;;;;;;;;;5067341;28;20032;-58
2023/10/30 11:28:08;;;;;;;0.80;0.50;;;;;;;;;;5068779;28;20041;-58
2023/10/30 11:30:44;;;;;;;3.53;0.80;;;;;;;;;;5072007;28;20025;-58
2023/10/30 11:33:20;;;;;;;1.03;0.60;;;;;;;;;;5076188;28;20066;-58
2023/10/30 11:35:51;;;;;;;0.40;0.40;;;;;;;;;;5079162;28;20037;-59
2023/10/30 11:38:18;;;;;;;1.23;0.80;;;;;;;;;;5071731;28;20017;-58
2023/10/30 11:41:01;;;;;;;1.10;0.80;;;;;;;;;;5068945;28;20029;-58
2023/10/30 11:43:34;;;;;;;1.37;0.70;;;;;;;;;;5066820;28;20025;-58
2023/10/30 11:46:03;;;;;;;0.93;0.80;;;;;;;;;;5066371;28;20044;-58
2023/10/30 11:48:30;;;;;;;1.37;0.87;;;;;;;;;;5066027;28;20401;-58
2023/10/30 11:50:58;;;;;;;2.53;0.90;;;;;;;;;;5070678;28;20020;-58
2023/10/30 11:53:26;;;;;;;0.70;0.60;;;;;;;;;;5075523;28;20029;-58
2023/10/30 11:55:52;;;;;;;0.63;0.50;;;;;;;;;;5075438;28;20028;-58
2023/10/30 11:58:20;;;;;;;1.10;0.80;;;;;;;;;;5075230;28;20104;-58
2023/10/30 12:00:47;;;;;;;0.90;0.67;;;;;;;;;;5075151;28;20078;-58
2023/10/30 12:03:14;;;;;;;1.20;0.87;;;;;;;;;;5072721;28;20020;-58
2023/10/30 12:05:41;;;;;;;0.83;0.73;;;;;;;;;;5070271;28;20099;-58
2023/10/30 12:08:09;;;;;;;0.90;0.77;;;;;;;;;;5070575;28;20025;-58
2023/10/30 12:10:39;;;;;;;1.40;0.57;;;;;;;;;;5070386;28;20097;-58
2023/10/30 12:13:06;;;;;;;1.27;0.80;;;;;;;;;;5072478;28;20367;-59
2023/10/30 12:15:33;;;;;;;1.17;0.87;;;;;;;;;;5089497;28;20044;-58
2023/10/30 12:17:59;;;;;;;0.53;0.43;;;;;;;;;;5095552;28;20032;-58
2023/10/30 12:20:26;;;;;;;1.20;0.83;;;;;;;;;;5095544;28;20078;-58
2023/10/30 12:22:55;;;;;;;1.27;0.60;;;;;;;;;;5090974;28;20032;-58
2023/10/30 12:25:22;;;;;;;9.73;0.93;;;;;;;;;;5089358;28;20028;-58
2023/10/30 12:27:48;;;;;;;1.27;0.90;;;;;;;;;;5090242;28;20033;-58
2023/10/30 12:30:16;;;;;;;0.90;0.53;;;;;;;;;;5090323;28;20024;-58
2023/10/30 12:32:43;;;;;;;0.43;0.43;;;;;;;;;;5070073;28;20143;-58
2023/10/30 12:35:10;;;;;;;1.47;1.03;;;;;;;;;;5071567;28;20119;-58
2023/10/30 12:37:38;;;;;;;1.33;0.90;;;;;;;;;;5074873;28;20037;-58
2023/10/30 12:40:07;;;;;;;0.63;0.50;;;;;;;;;;5074728;28;20495;-58
2023/10/30 12:42:38;;;;;;;2.33;1.30;;;;;;;;;;5073465;28;20044;-58
2023/10/30 12:45:07;;;;;;;2.47;1.00;;;;;;;;;;5074697;28;20020;-58
2023/10/30 12:47:34;;;;;;;1.47;0.60;;;;;;;;;;5071982;28;20089;-58
2023/10/30 12:50:01;;;;;;;5.23;1.03;;;;;;;;;;5069405;28;20017;-58
2023/10/30 12:52:29;;;;;;;0.93;0.70;;;;;;;;;;5069267;28;20035;-58
2023/10/30 12:54:56;;;;;;;2.87;1.43;;;;;;;;;;5069492;28;20066;-58
2023/10/30 12:57:23;;;;;;;0.93;0.70;;;;;;;;;;5070709;28;20020;-58
2023/10/30 12:59:50;;;;;;;1.60;1.10;;;;;;;;;;5074238;28;20353;-58
2023/10/30 13:02:17;;;;;;;3.37;1.70;;;;;;;;;;5074307;28;20029;-58
2023/10/30 13:04:43;;;;;;;2.10;1.13;;;;;;;;;;5074119;28;20025;-58
2023/10/30 13:07:10;;;;;;;2.70;1.67;;;;;;;;;;5074553;28;20028;-58
2023/10/30 13:09:37;;;;;;;6.50;1.30;;;;;;;;;;5072539;28;20034;-57
2023/10/30 13:12:04;;;;;;;3.33;1.93;;;;;;;;;;5069243;28;20033;-58
2023/10/30 13:14:30;;;;;;;9.10;2.63;;;;;;;;;;5068966;28;20032;-58
2023/10/30 13:16:57;;;;;;;11.97;1.67;;;;;;;;;;5069277;28;20027;-58
2023/10/30 13:19:24;;;;;;;5.77;1.83;;;;;;;;;;5069701;28;20070;-58
2023/10/30 13:21:50;;;;;;;2.20;1.77;;;;;;;;;;5073016;28;20025;-58
2023/10/30 13:24:17;;;;;;;2.13;1.60;;;;;;;;;;5073676;28;20480;-58
2023/10/30 13:26:44;;;;;;;3.97;2.33;;;;;;;;;;5073083;28;20103;-58
2023/10/30 13:29:11;;;;;;;2.90;1.97;;;;;;;;;;5071201;28;20155;-58
2023/10/30 13:31:38;;;;;;;3.13;1.93;;;;;;;;;;5069315;28;20457;-59
2023/10/30 13:34:05;;;;;;;4.13;2.20;;;;;;;;;;5089097;28;20418;-59
2023/10/30 13:36:32;;;;;;;3.97;2.33;;;;;;;;;;5074090;28;20029;-59
2023/10/30 13:38:58;;;;;;;1.73;1.37;;;;;;;;;;5068878;28;20050;-58
2023/10/30 13:41:25;;;;;;;1.20;1.00;;;;;;;;;;5068921;28;20510;-58
2023/10/30 13:43:52;;;;;;;1.50;1.07;;;;;;;;;;5073222;28;20025;-59
2023/10/30 13:46:18;;;;;;;2.33;1.67;;;;;;;;;;5073613;28;20025;-58
2023/10/30 13:48:45;;;;;;;13.13;2.13;;;;;;;;;;5088522;28;20020;-58
2023/10/30 13:51:12;;;;;;;4.10;1.17;;;;;;;;;;5081303;28;20038;-59
2023/10/30 13:53:38;;;;;;;1.63;1.30;;;;;;;;;;5071615;28;20028;-58
2023/10/30 13:56:05;;;;;;;1.30;1.00;;;;;;;;;;5068303;28;20483;-58
2023/10/30 13:58:32;;;;;;;1.83;1.33;;;;;;;;;;5063106;28;20036;-59
2023/10/30 14:00:58;;;;;;;1.93;0.93;;;;;;;;;;5052500;28;20032;-59
2023/10/30 14:03:25;;;;;;;1.23;0.93;;;;;;;;;;5054806;28;20063;-58
2023/10/30 14:05:52;;;;;;;2.43;1.20;;;;;;;;;;5067758;28;20600;-59
2023/10/30 14:08:18;;;;;;;2.93;1.30;;;;;;;;;;5053908;28;20165;-59
2023/10/30 14:10:45;;;;;;;1.73;0.90;;;;;;;;;;5070898;28;20028;-58
2023/10/30 14:13:12;;;;;;;1.93;1.20;;;;;;;;;;5071971;28;20105;-59
2023/10/30 14:15:38;;;;;;;1.47;0.97;;;;;;;;;;5072484;28;20032;-59
2023/10/30 14:18:05;;;;;;;1.53;1.00;;;;;;;;;;5068744;28;20033;-59
2023/10/30 14:20:32;;;;;;;1.50;0.80;;;;;;;;;;5050206;28;20033;-59
2023/10/30 14:22:58;;;;;;;1.90;1.30;;;;;;;;;;5047718;28;20483;-58
2023/10/30 14:25:25;;;;;;;3.27;1.30;;;;;;;;;;5047329;28;20021;-59
2023/10/30 14:27:54;;;;;;;2.07;1.03;;;;;;;;;;5062245;28;20078;-60
2023/10/30 14:30:23;;;;;;;16.27;1.70;;;;;;;;;;5052549;28;20231;-59
2023/10/30 14:32:51;;;;;;;1.97;1.20;;;;;;;;;;5061810;28;20024;-59
2023/10/30 14:35:19;;;;;;;1.03;0.70;;;;;;;;;;5071745;28;20102;-59
2023/10/30 14:37:50;;;;;;;1.10;0.80;;;;;;;;;;5054781;28;20022;-58
2023/10/30 14:40:17;;;;;;;1.13;0.80;;;;;;;;;;5053698;28;20047;-59
2023/10/30 14:42:43;;;;;;;1.30;1.00;;;;;;;;;;5065661;28;20099;-58
2023/10/30 14:45:10;;;;;;;1.03;0.80;;;;;;;;;;5066731;28;20036;-59